sensor_id;sensor_type;location;lat;lon;timestamp;temperature;humidity
53208;DHT22;39093;52.788;6.940;2022-12-18T00:01:23;-2.90;99.90
53208;DHT22;39093;52.788;6.940;2022-12-18T00:03:51;-2.90;99.90
53208;DHT22;39093;52.788;6.940;2022-12-18T00:06:19;-3.00;99.90
53208;DHT22;39093;52.788;6.940;2022-12-18T00:08:46;-2.90;99.90
53208;DHT22;39093;52.788;6.940;2022-12-18T00:11:17;-2.90;99.90
53208;DHT22;39093;52.788;6.940;2022-12-18T00:13:44;-3.00;99.90
53208;DHT22;39093;52.788;6.940;2022-12-18T00:16:13;-3.10;99.90
53208;DHT22;39093;52.788;6.940;2022-12-18T00:18:41;-3.10;99.90
53208;DHT22;39093;52.788;6.940;2022-12-18T00:21:10;-3.20;99.90
53208;DHT22;39093;52.788;6.940;2022-12-18T00:23:39;-3.20;99.90
53208;DHT22;39093;52.788;6.940;2022-12-18T00:26:10;-3.20;99.90
53208;DHT22;39093;52.788;6.940;2022-12-18T00:28:37;-3.20;99.90
53208;DHT22;39093;52.788;6.940;2022-12-18T00:31:15;-3.20;99.90
53208;DHT22;39093;52.788;6.940;2022-12-18T00:33:43;-3.30;99.90
53208;DHT22;39093;52.788;6.940;2022-12-18T00:36:21;-3.30;99.90
53208;DHT22;39093;52.788;6.940;2022-12-18T00:38:48;-3.30;99.90
53208;DHT22;39093;52.788;6.940;2022-12-18T00:41:17;-3.20;99.90
53208;DHT22;39093;52.788;6.940;2022-12-18T00:44:05;-3.30;99.90
53208;DHT22;39093;52.788;6.940;2022-12-18T00:46:33;-3.30;99.90
53208;DHT22;39093;52.788;6.940;2022-12-18T00:49:00;-3.40;99.90
53208;DHT22;39093;52.788;6.940;2022-12-18T00:51:27;-3.40;99.90
53208;DHT22;39093;52.788;6.940;2022-12-18T00:53:54;-3.40;99.90
53208;DHT22;39093;52.788;6.940;2022-12-18T00:56:21;-3.50;99.90
53208;DHT22;39093;52.788;6.940;2022-12-18T00:58:48;-3.50;99.90
53208;DHT22;39093;52.788;6.940;2022-12-18T01:01:16;-3.60;99.90
53208;DHT22;39093;52.788;6.940;2022-12-18T01:03:44;-3.60;99.90
53208;DHT22;39093;52.788;6.940;2022-12-18T01:06:16;-4.00;99.90
53208;DHT22;39093;52.788;6.940;2022-12-18T01:08:44;-4.30;99.90
53208;DHT22;39093;52.788;6.940;2022-12-18T01:11:14;-3.70;99.90
53208;DHT22;39093;52.788;6.940;2022-12-18T01:13:45;-3.60;99.90
53208;DHT22;39093;52.788;6.940;2022-12-18T01:16:13;-3.70;99.90
53208;DHT22;39093;52.788;6.940;2022-12-18T01:18:41;-3.80;99.90
53208;DHT22;39093;52.788;6.940;2022-12-18T01:21:14;-3.80;99.90
53208;DHT22;39093;52.788;6.940;2022-12-18T01:23:41;-3.90;99.90
53208;DHT22;39093;52.788;6.940;2022-12-18T01:26:11;-3.80;99.90
53208;DHT22;39093;52.788;6.940;2022-12-18T01:28:39;-3.90;99.90
53208;DHT22;39093;52.788;6.940;2022-12-18T01:31:21;-3.90;99.90
53208;DHT22;39093;52.788;6.940;2022-12-18T01:33:49;-3.90;99.90
53208;DHT22;39093;52.788;6.940;2022-12-18T01:36:23;-4.00;99.90
53208;DHT22;39093;52.788;6.940;2022-12-18T01:38:51;-4.10;99.90
53208;DHT22;39093;52.788;6.940;2022-12-18T01:41:21;-4.10;99.90
53208;DHT22;39093;52.788;6.940;2022-12-18T01:43:54;-4.20;99.90
53208;DHT22;39093;52.788;6.940;2022-12-18T01:46:22;-4.20;99.90
53208;DHT22;39093;52.788;6.940;2022-12-18T01:48:53;-4.30;99.90
53208;DHT22;39093;52.788;6.940;2022-12-18T01:51:22;-4.30;99.90
53208;DHT22;39093;52.788;6.940;2022-12-18T01:53:49;-4.40;99.90
53208;DHT22;39093;52.788;6.940;2022-12-18T01:56:18;-4.40;99.90
53208;DHT22;39093;52.788;6.940;2022-12-18T01:58:59;-4.40;99.90
53208;DHT22;39093;52.788;6.940;2022-12-18T02:01:30;-4.50;99.90
53208;DHT22;39093;52.788;6.940;2022-12-18T02:04:24;-4.60;99.90
53208;DHT22;39093;52.788;6.940;2022-12-18T02:07:08;-4.60;99.90
53208;DHT22;39093;52.788;6.940;2022-12-18T02:09:50;-4.70;99.90
53208;DHT22;39093;52.788;6.940;2022-12-18T02:12:23;-4.60;99.90
53208;DHT22;39093;52.788;6.940;2022-12-18T02:15:17;-4.70;99.90
53208;DHT22;39093;52.788;6.940;2022-12-18T02:17:58;-4.80;99.90
53208;DHT22;39093;52.788;6.940;2022-12-18T02:26:37;-4.90;99.90
53208;DHT22;39093;52.788;6.940;2022-12-18T02:29:10;-4.90;99.90
53208;DHT22;39093;52.788;6.940;2022-12-18T02:31:58;-4.90;99.90
53208;DHT22;39093;52.788;6.940;2022-12-18T02:34:32;-4.90;99.90
53208;DHT22;39093;52.788;6.940;2022-12-18T02:37:05;-5.00;99.90
53208;DHT22;39093;52.788;6.940;2022-12-18T02:39:36;-5.00;99.90
53208;DHT22;39093;52.788;6.940;2022-12-18T02:42:04;-5.00;99.90
53208;DHT22;39093;52.788;6.940;2022-12-18T02:44:41;-5.10;99.90
53208;DHT22;39093;52.788;6.940;2022-12-18T02:47:11;-5.10;99.90
53208;DHT22;39093;52.788;6.940;2022-12-18T02:52:32;-5.10;99.90
53208;DHT22;39093;52.788;6.940;2022-12-18T02:55:24;-5.10;99.90
53208;DHT22;39093;52.788;6.940;2022-12-18T02:58:18;-5.20;99.90
53208;DHT22;39093;52.788;6.940;2022-12-18T03:01:08;-5.20;99.90
53208;DHT22;39093;52.788;6.940;2022-12-18T03:06:12;-5.20;99.90
53208;DHT22;39093;52.788;6.940;2022-12-18T03:08:44;-5.20;99.90
53208;DHT22;39093;52.788;6.940;2022-12-18T03:11:14;-5.20;99.90
53208;DHT22;39093;52.788;6.940;2022-12-18T03:13:54;-5.20;99.90
53208;DHT22;39093;52.788;6.940;2022-12-18T03:16:28;-5.30;99.90
53208;DHT22;39093;52.788;6.940;2022-12-18T03:19:01;-5.20;99.90
53208;DHT22;39093;52.788;6.940;2022-12-18T03:21:33;-5.20;99.90
53208;DHT22;39093;52.788;6.940;2022-12-18T03:24:06;-5.20;99.90
53208;DHT22;39093;52.788;6.940;2022-12-18T03:26:36;-5.30;99.90
53208;DHT22;39093;52.788;6.940;2022-12-18T03:29:09;-5.30;99.90
53208;DHT22;39093;52.788;6.940;2022-12-18T03:31:37;-5.30;99.90
53208;DHT22;39093;52.788;6.940;2022-12-18T03:34:12;-5.30;99.90
53208;DHT22;39093;52.788;6.940;2022-12-18T03:36:41;-5.30;99.90
53208;DHT22;39093;52.788;6.940;2022-12-18T03:39:07;-5.40;99.90
53208;DHT22;39093;52.788;6.940;2022-12-18T03:41:44;-5.40;99.90
53208;DHT22;39093;52.788;6.940;2022-12-18T03:44:28;-5.40;99.90
53208;DHT22;39093;52.788;6.940;2022-12-18T03:53:35;-5.40;99.90
53208;DHT22;39093;52.788;6.940;2022-12-18T03:56:05;-5.50;99.90
53208;DHT22;39093;52.788;6.940;2022-12-18T03:58:34;-5.50;99.90
53208;DHT22;39093;52.788;6.940;2022-12-18T04:01:03;-5.50;99.90
53208;DHT22;39093;52.788;6.940;2022-12-18T04:03:34;-5.50;99.90
53208;DHT22;39093;52.788;6.940;2022-12-18T04:06:03;-5.50;99.90
53208;DHT22;39093;52.788;6.940;2022-12-18T04:08:31;-5.30;99.90
53208;DHT22;39093;52.788;6.940;2022-12-18T04:10:57;-5.60;99.90
53208;DHT22;39093;52.788;6.940;2022-12-18T04:13:33;-5.60;99.90
53208;DHT22;39093;52.788;6.940;2022-12-18T04:16:01;-5.60;99.90
53208;DHT22;39093;52.788;6.940;2022-12-18T04:18:28;-5.60;99.90
53208;DHT22;39093;52.788;6.940;2022-12-18T04:20:55;-5.60;99.90
53208;DHT22;39093;52.788;6.940;2022-12-18T04:23:22;-5.60;99.90
53208;DHT22;39093;52.788;6.940;2022-12-18T04:25:49;-5.70;99.90
53208;DHT22;39093;52.788;6.940;2022-12-18T04:28:16;-5.70;99.90
53208;DHT22;39093;52.788;6.940;2022-12-18T04:30:43;-5.70;99.90
53208;DHT22;39093;52.788;6.940;2022-12-18T04:33:11;-5.70;99.90
53208;DHT22;39093;52.788;6.940;2022-12-18T04:35:41;-5.70;99.90
53208;DHT22;39093;52.788;6.940;2022-12-18T04:38:08;-5.80;99.90
53208;DHT22;39093;52.788;6.940;2022-12-18T04:40:37;-5.80;99.90
53208;DHT22;39093;52.788;6.940;2022-12-18T04:43:04;-5.70;99.90
53208;DHT22;39093;52.788;6.940;2022-12-18T04:45:31;-5.80;99.90
53208;DHT22;39093;52.788;6.940;2022-12-18T04:47:59;-5.80;99.90
53208;DHT22;39093;52.788;6.940;2022-12-18T04:50:27;-5.80;99.90
53208;DHT22;39093;52.788;6.940;2022-12-18T04:52:55;-5.80;99.90
53208;DHT22;39093;52.788;6.940;2022-12-18T04:55:22;-5.90;99.90
53208;DHT22;39093;52.788;6.940;2022-12-18T04:57:48;-5.70;99.90
53208;DHT22;39093;52.788;6.940;2022-12-18T05:00:19;-5.80;99.90
53208;DHT22;39093;52.788;6.940;2022-12-18T05:02:50;-5.90;99.90
53208;DHT22;39093;52.788;6.940;2022-12-18T05:05:17;-5.80;99.90
53208;DHT22;39093;52.788;6.940;2022-12-18T05:07:44;-5.80;99.90
53208;DHT22;39093;52.788;6.940;2022-12-18T05:10:11;-5.90;99.90
53208;DHT22;39093;52.788;6.940;2022-12-18T05:12:38;-5.90;99.90
53208;DHT22;39093;52.788;6.940;2022-12-18T05:15:32;-5.80;99.90
53208;DHT22;39093;52.788;6.940;2022-12-18T05:17:59;-5.80;99.90
53208;DHT22;39093;52.788;6.940;2022-12-18T05:20:27;-5.80;99.90
53208;DHT22;39093;52.788;6.940;2022-12-18T05:22:55;-5.80;99.90
53208;DHT22;39093;52.788;6.940;2022-12-18T05:25:22;-5.90;99.90
53208;DHT22;39093;52.788;6.940;2022-12-18T05:27:49;-5.90;99.90
53208;DHT22;39093;52.788;6.940;2022-12-18T05:30:34;-5.90;99.90
53208;DHT22;39093;52.788;6.940;2022-12-18T05:33:04;-5.90;99.90
53208;DHT22;39093;52.788;6.940;2022-12-18T05:35:34;-5.90;99.90
53208;DHT22;39093;52.788;6.940;2022-12-18T05:38:01;-5.90;99.90
53208;DHT22;39093;52.788;6.940;2022-12-18T05:40:28;-6.00;99.90
53208;DHT22;39093;52.788;6.940;2022-12-18T05:42:55;-6.00;99.90
53208;DHT22;39093;52.788;6.940;2022-12-18T05:45:22;-6.00;99.90
53208;DHT22;39093;52.788;6.940;2022-12-18T05:47:49;-6.00;99.90
53208;DHT22;39093;52.788;6.940;2022-12-18T05:50:24;-6.00;99.90
53208;DHT22;39093;52.788;6.940;2022-12-18T05:52:51;-6.00;99.90
53208;DHT22;39093;52.788;6.940;2022-12-18T05:55:18;-6.00;99.90
53208;DHT22;39093;52.788;6.940;2022-12-18T05:57:45;-6.00;99.90
53208;DHT22;39093;52.788;6.940;2022-12-18T06:00:12;-6.00;99.90
53208;DHT22;39093;52.788;6.940;2022-12-18T06:02:39;-6.00;99.90
53208;DHT22;39093;52.788;6.940;2022-12-18T06:05:06;-6.10;99.90
53208;DHT22;39093;52.788;6.940;2022-12-18T06:07:33;-6.00;99.90
53208;DHT22;39093;52.788;6.940;2022-12-18T06:10:00;-6.10;99.90
53208;DHT22;39093;52.788;6.940;2022-12-18T06:12:53;-6.10;99.90
53208;DHT22;39093;52.788;6.940;2022-12-18T06:15:19;-6.10;99.90
53208;DHT22;39093;52.788;6.940;2022-12-18T06:17:46;-6.10;99.90
53208;DHT22;39093;52.788;6.940;2022-12-18T06:20:13;-6.10;99.90
53208;DHT22;39093;52.788;6.940;2022-12-18T06:22:41;-6.10;99.90
53208;DHT22;39093;52.788;6.940;2022-12-18T06:25:08;-6.10;99.90
53208;DHT22;39093;52.788;6.940;2022-12-18T06:27:35;-6.10;99.90
53208;DHT22;39093;52.788;6.940;2022-12-18T06:30:03;-6.10;99.90
53208;DHT22;39093;52.788;6.940;2022-12-18T06:32:30;-6.10;99.90
53208;DHT22;39093;52.788;6.940;2022-12-18T06:34:57;-6.10;99.90
53208;DHT22;39093;52.788;6.940;2022-12-18T06:37:24;-6.20;99.90
53208;DHT22;39093;52.788;6.940;2022-12-18T06:39:55;-6.20;99.90
53208;DHT22;39093;52.788;6.940;2022-12-18T06:42:24;-6.20;99.90
53208;DHT22;39093;52.788;6.940;2022-12-18T06:44:50;-6.20;99.90
53208;DHT22;39093;52.788;6.940;2022-12-18T06:47:35;-6.20;99.90
53208;DHT22;39093;52.788;6.940;2022-12-18T06:50:02;-6.20;99.90
53208;DHT22;39093;52.788;6.940;2022-12-18T06:52:32;-6.20;99.90
53208;DHT22;39093;52.788;6.940;2022-12-18T06:54:59;-6.20;99.90
53208;DHT22;39093;52.788;6.940;2022-12-18T06:57:26;-6.20;99.90
53208;DHT22;39093;52.788;6.940;2022-12-18T06:59:52;-6.30;99.90
53208;DHT22;39093;52.788;6.940;2022-12-18T07:02:19;-6.20;99.90
53208;DHT22;39093;52.788;6.940;2022-12-18T07:04:46;-6.20;99.90
53208;DHT22;39093;52.788;6.940;2022-12-18T07:07:13;-6.30;99.90
53208;DHT22;39093;52.788;6.940;2022-12-18T07:09:40;-6.20;99.90
53208;DHT22;39093;52.788;6.940;2022-12-18T07:12:07;-6.30;99.90
53208;DHT22;39093;52.788;6.940;2022-12-18T07:14:34;-6.30;99.90
53208;DHT22;39093;52.788;6.940;2022-12-18T07:17:01;-6.30;99.90
53208;DHT22;39093;52.788;6.940;2022-12-18T07:19:29;-6.30;99.90
53208;DHT22;39093;52.788;6.940;2022-12-18T07:21:57;-6.30;99.90
53208;DHT22;39093;52.788;6.940;2022-12-18T07:24:24;-6.30;99.90
53208;DHT22;39093;52.788;6.940;2022-12-18T07:26:50;-6.30;99.90
53208;DHT22;39093;52.788;6.940;2022-12-18T07:29:17;-6.30;99.90
53208;DHT22;39093;52.788;6.940;2022-12-18T07:31:44;-6.30;99.90
53208;DHT22;39093;52.788;6.940;2022-12-18T07:34:13;-6.30;99.90
53208;DHT22;39093;52.788;6.940;2022-12-18T07:36:40;-6.30;99.90
53208;DHT22;39093;52.788;6.940;2022-12-18T07:39:07;-6.20;99.90
53208;DHT22;39093;52.788;6.940;2022-12-18T07:41:34;-6.20;99.90
53208;DHT22;39093;52.788;6.940;2022-12-18T07:44:01;-6.10;99.90
53208;DHT22;39093;52.788;6.940;2022-12-18T07:46:28;-6.10;99.90
53208;DHT22;39093;52.788;6.940;2022-12-18T07:49:03;-6.10;99.90
53208;DHT22;39093;52.788;6.940;2022-12-18T07:51:30;-6.00;99.90
53208;DHT22;39093;52.788;6.940;2022-12-18T07:53:57;-6.00;99.90
53208;DHT22;39093;52.788;6.940;2022-12-18T07:56:24;-5.90;99.90
53208;DHT22;39093;52.788;6.940;2022-12-18T07:58:56;-5.90;99.90
53208;DHT22;39093;52.788;6.940;2022-12-18T08:01:23;-5.90;99.90
53208;DHT22;39093;52.788;6.940;2022-12-18T08:04:00;-5.80;99.90
53208;DHT22;39093;52.788;6.940;2022-12-18T08:06:27;-5.80;99.90
53208;DHT22;39093;52.788;6.940;2022-12-18T08:08:55;-5.80;99.90
53208;DHT22;39093;52.788;6.940;2022-12-18T08:11:24;-5.80;99.90
53208;DHT22;39093;52.788;6.940;2022-12-18T08:13:51;-5.80;99.90
53208;DHT22;39093;52.788;6.940;2022-12-18T08:16:19;-5.50;99.90
53208;DHT22;39093;52.788;6.940;2022-12-18T08:18:46;-5.70;99.90
53208;DHT22;39093;52.788;6.940;2022-12-18T08:21:23;-5.70;99.90
53208;DHT22;39093;52.788;6.940;2022-12-18T08:23:57;-5.70;99.90
53208;DHT22;39093;52.788;6.940;2022-12-18T08:26:26;-5.60;99.90
53208;DHT22;39093;52.788;6.940;2022-12-18T08:28:57;-5.50;99.90
53208;DHT22;39093;52.788;6.940;2022-12-18T08:31:26;-5.50;99.90
53208;DHT22;39093;52.788;6.940;2022-12-18T08:34:03;-5.50;99.90
53208;DHT22;39093;52.788;6.940;2022-12-18T08:36:29;-5.40;99.90
53208;DHT22;39093;52.788;6.940;2022-12-18T08:38:56;-5.30;99.90
53208;DHT22;39093;52.788;6.940;2022-12-18T08:41:24;-5.30;99.90
53208;DHT22;39093;52.788;6.940;2022-12-18T08:43:51;-5.20;99.90
53208;DHT22;39093;52.788;6.940;2022-12-18T08:46:42;-5.20;99.90
53208;DHT22;39093;52.788;6.940;2022-12-18T08:49:09;-5.10;99.90
53208;DHT22;39093;52.788;6.940;2022-12-18T08:51:37;-5.00;99.90
53208;DHT22;39093;52.788;6.940;2022-12-18T08:54:05;-5.00;99.90
53208;DHT22;39093;52.788;6.940;2022-12-18T08:56:33;-5.00;99.90
53208;DHT22;39093;52.788;6.940;2022-12-18T08:59:00;-5.00;99.90
53208;DHT22;39093;52.788;6.940;2022-12-18T09:01:41;-4.90;99.90
53208;DHT22;39093;52.788;6.940;2022-12-18T09:04:50;-4.00;99.90
53208;DHT22;39093;52.788;6.940;2022-12-18T09:08:27;-4.80;99.90
53208;DHT22;39093;52.788;6.940;2022-12-18T09:10:54;-4.70;99.90
53208;DHT22;39093;52.788;6.940;2022-12-18T09:13:22;-4.70;99.90
53208;DHT22;39093;52.788;6.940;2022-12-18T09:16:04;-4.70;99.90
53208;DHT22;39093;52.788;6.940;2022-12-18T09:18:51;-4.60;99.90
53208;DHT22;39093;52.788;6.940;2022-12-18T09:21:20;-4.50;99.90
53208;DHT22;39093;52.788;6.940;2022-12-18T09:24:04;-4.50;99.90
53208;DHT22;39093;52.788;6.940;2022-12-18T09:26:35;-4.50;99.90
53208;DHT22;39093;52.788;6.940;2022-12-18T09:29:08;-4.40;99.90
53208;DHT22;39093;52.788;6.940;2022-12-18T09:31:55;-4.40;99.90
53208;DHT22;39093;52.788;6.940;2022-12-18T09:34:37;-4.40;99.90
53208;DHT22;39093;52.788;6.940;2022-12-18T09:37:40;-4.30;99.90
53208;DHT22;39093;52.788;6.940;2022-12-18T09:40:25;-4.30;99.90
53208;DHT22;39093;52.788;6.940;2022-12-18T09:42:59;-4.20;99.90
53208;DHT22;39093;52.788;6.940;2022-12-18T09:45:27;-4.20;99.90
53208;DHT22;39093;52.788;6.940;2022-12-18T09:47:55;-4.10;99.90
53208;DHT22;39093;52.788;6.940;2022-12-18T09:50:35;-4.10;99.90
53208;DHT22;39093;52.788;6.940;2022-12-18T09:53:17;-4.00;99.90
53208;DHT22;39093;52.788;6.940;2022-12-18T09:55:51;-4.00;99.90
53208;DHT22;39093;52.788;6.940;2022-12-18T10:00:46;-3.90;99.90
53208;DHT22;39093;52.788;6.940;2022-12-18T10:03:16;-3.90;99.90
53208;DHT22;39093;52.788;6.940;2022-12-18T10:11:43;-3.60;99.90
53208;DHT22;39093;52.788;6.940;2022-12-18T10:14:30;-3.60;99.90
53208;DHT22;39093;52.788;6.940;2022-12-18T10:19:47;-3.40;99.90
53208;DHT22;39093;52.788;6.940;2022-12-18T10:28:10;-3.30;99.90
53208;DHT22;39093;52.788;6.940;2022-12-18T10:30:46;-3.30;99.90
53208;DHT22;39093;52.788;6.940;2022-12-18T10:33:19;-3.30;99.90
53208;DHT22;39093;52.788;6.940;2022-12-18T10:35:49;-3.20;99.90
53208;DHT22;39093;52.788;6.940;2022-12-18T10:43:25;-3.20;99.90
53208;DHT22;39093;52.788;6.940;2022-12-18T10:49:02;-3.10;99.90
53208;DHT22;39093;52.788;6.940;2022-12-18T10:51:34;-3.00;99.90
53208;DHT22;39093;52.788;6.940;2022-12-18T10:54:05;-3.00;99.90
53208;DHT22;39093;52.788;6.940;2022-12-18T10:56:36;-2.90;99.90
53208;DHT22;39093;52.788;6.940;2022-12-18T10:59:10;-2.90;99.90
53208;DHT22;39093;52.788;6.940;2022-12-18T11:01:57;-2.80;99.90
53208;DHT22;39093;52.788;6.940;2022-12-18T11:04:30;-2.80;99.90
53208;DHT22;39093;52.788;6.940;2022-12-18T11:07:00;-2.70;99.90
53208;DHT22;39093;52.788;6.940;2022-12-18T11:09:29;-2.70;99.90
53208;DHT22;39093;52.788;6.940;2022-12-18T11:11:58;-2.70;99.90
53208;DHT22;39093;52.788;6.940;2022-12-18T11:14:33;-2.70;99.90
53208;DHT22;39093;52.788;6.940;2022-12-18T11:17:01;-2.60;99.90
53208;DHT22;39093;52.788;6.940;2022-12-18T11:19:56;-1.90;99.90
53208;DHT22;39093;52.788;6.940;2022-12-18T11:25:05;-2.50;99.90
53208;DHT22;39093;52.788;6.940;2022-12-18T11:28:36;-2.50;99.90
53208;DHT22;39093;52.788;6.940;2022-12-18T11:31:20;-2.40;99.90
53208;DHT22;39093;52.788;6.940;2022-12-18T11:33:52;-2.40;99.90
53208;DHT22;39093;52.788;6.940;2022-12-18T11:36:43;-2.30;99.90
53208;DHT22;39093;52.788;6.940;2022-12-18T11:39:38;-2.30;99.90
53208;DHT22;39093;52.788;6.940;2022-12-18T11:42:45;-2.30;99.90
53208;DHT22;39093;52.788;6.940;2022-12-18T11:45:30;-2.20;99.90
53208;DHT22;39093;52.788;6.940;2022-12-18T11:48:21;-2.20;99.90
53208;DHT22;39093;52.788;6.940;2022-12-18T11:51:19;-2.10;99.90
53208;DHT22;39093;52.788;6.940;2022-12-18T11:54:13;-2.10;99.90
53208;DHT22;39093;52.788;6.940;2022-12-18T12:05:20;-2.00;99.90
53208;DHT22;39093;52.788;6.940;2022-12-18T12:08:36;-2.00;99.90
53208;DHT22;39093;52.788;6.940;2022-12-18T12:14:01;-2.00;99.90
53208;DHT22;39093;52.788;6.940;2022-12-18T12:22:06;-1.90;99.90
53208;DHT22;39093;52.788;6.940;2022-12-18T12:27:20;-1.80;99.90
53208;DHT22;39093;52.788;6.940;2022-12-18T12:30:16;-1.80;99.90
53208;DHT22;39093;52.788;6.940;2022-12-18T12:35:47;-1.70;99.90
53208;DHT22;39093;52.788;6.940;2022-12-18T12:38:22;-1.70;99.90
53208;DHT22;39093;52.788;6.940;2022-12-18T12:40:59;-1.70;99.90
53208;DHT22;39093;52.788;6.940;2022-12-18T12:43:48;-1.70;99.90
53208;DHT22;39093;52.788;6.940;2022-12-18T12:46:25;-1.60;99.90
53208;DHT22;39093;52.788;6.940;2022-12-18T12:48:58;-1.60;99.90
53208;DHT22;39093;52.788;6.940;2022-12-18T12:51:38;-1.60;99.90
53208;DHT22;39093;52.788;6.940;2022-12-18T12:54:17;-1.60;99.90
53208;DHT22;39093;52.788;6.940;2022-12-18T12:59:50;-1.00;99.90
53208;DHT22;39093;52.788;6.940;2022-12-18T13:02:52;-1.50;99.90
53208;DHT22;39093;52.788;6.940;2022-12-18T13:08:31;-1.40;99.90
53208;DHT22;39093;52.788;6.940;2022-12-18T13:11:01;-1.40;99.90
53208;DHT22;39093;52.788;6.940;2022-12-18T13:13:52;-1.40;99.90
53208;DHT22;39093;52.788;6.940;2022-12-18T13:16:22;-1.30;99.90
53208;DHT22;39093;52.788;6.940;2022-12-18T13:18:51;-1.30;99.90
53208;DHT22;39093;52.788;6.940;2022-12-18T13:21:28;-1.30;99.90
53208;DHT22;39093;52.788;6.940;2022-12-18T13:23:56;-1.30;99.90
53208;DHT22;39093;52.788;6.940;2022-12-18T13:28:56;-1.30;99.90
53208;DHT22;39093;52.788;6.940;2022-12-18T13:34:21;-1.30;99.90
53208;DHT22;39093;52.788;6.940;2022-12-18T13:36:56;-1.30;99.90
53208;DHT22;39093;52.788;6.940;2022-12-18T13:39:32;-1.30;99.90
53208;DHT22;39093;52.788;6.940;2022-12-18T13:44:37;-1.30;99.90
53208;DHT22;39093;52.788;6.940;2022-12-18T13:47:33;-1.40;99.90
53208;DHT22;39093;52.788;6.940;2022-12-18T13:50:09;-1.40;99.90
53208;DHT22;39093;52.788;6.940;2022-12-18T13:52:39;-1.20;99.90
53208;DHT22;39093;52.788;6.940;2022-12-18T13:55:14;-1.20;99.90
53208;DHT22;39093;52.788;6.940;2022-12-18T13:57:42;-1.40;99.90
53208;DHT22;39093;52.788;6.940;2022-12-18T14:00:29;-1.40;99.90
53208;DHT22;39093;52.788;6.940;2022-12-18T14:02:57;-1.40;99.90
53208;DHT22;39093;52.788;6.940;2022-12-18T14:05:28;-1.40;99.90
53208;DHT22;39093;52.788;6.940;2022-12-18T14:08:01;-1.40;99.90
53208;DHT22;39093;52.788;6.940;2022-12-18T14:10:29;-1.40;99.90
53208;DHT22;39093;52.788;6.940;2022-12-18T14:13:44;-1.40;99.90
53208;DHT22;39093;52.788;6.940;2022-12-18T14:16:37;-1.50;99.90
53208;DHT22;39093;52.788;6.940;2022-12-18T14:19:15;-1.50;99.90
53208;DHT22;39093;52.788;6.940;2022-12-18T14:21:50;-1.50;99.90
53208;DHT22;39093;52.788;6.940;2022-12-18T14:24:19;-1.50;99.90
53208;DHT22;39093;52.788;6.940;2022-12-18T14:26:49;-1.60;99.90
53208;DHT22;39093;52.788;6.940;2022-12-18T14:29:29;-1.60;99.90
53208;DHT22;39093;52.788;6.940;2022-12-18T14:32:17;-1.60;99.90
53208;DHT22;39093;52.788;6.940;2022-12-18T14:34:50;-1.60;99.90
53208;DHT22;39093;52.788;6.940;2022-12-18T14:37:21;-1.60;99.90
53208;DHT22;39093;52.788;6.940;2022-12-18T14:39:58;-1.60;99.90
53208;DHT22;39093;52.788;6.940;2022-12-18T14:42:30;-1.70;99.90
53208;DHT22;39093;52.788;6.940;2022-12-18T14:45:35;-1.70;99.90
53208;DHT22;39093;52.788;6.940;2022-12-18T14:48:20;-1.70;99.90
53208;DHT22;39093;52.788;6.940;2022-12-18T14:51:03;-1.70;99.90
53208;DHT22;39093;52.788;6.940;2022-12-18T14:53:45;-0.90;99.90
53208;DHT22;39093;52.788;6.940;2022-12-18T14:56:25;-1.60;99.90
53208;DHT22;39093;52.788;6.940;2022-12-18T14:59:00;-1.70;99.90
53208;DHT22;39093;52.788;6.940;2022-12-18T15:01:31;-1.70;99.90
53208;DHT22;39093;52.788;6.940;2022-12-18T15:10:34;-1.60;99.90
53208;DHT22;39093;52.788;6.940;2022-12-18T15:13:39;-1.70;99.90
53208;DHT22;39093;52.788;6.940;2022-12-18T15:16:11;-1.70;99.90
53208;DHT22;39093;52.788;6.940;2022-12-18T15:18:42;-1.70;99.90
53208;DHT22;39093;52.788;6.940;2022-12-18T15:21:47;-1.70;99.90
53208;DHT22;39093;52.788;6.940;2022-12-18T15:24:38;-1.70;99.90
53208;DHT22;39093;52.788;6.940;2022-12-18T15:27:26;-1.70;99.90
53208;DHT22;39093;52.788;6.940;2022-12-18T15:32:50;-1.80;99.90
53208;DHT22;39093;52.788;6.940;2022-12-18T15:35:21;-1.00;99.90
53208;DHT22;39093;52.788;6.940;2022-12-18T15:37:51;-1.80;99.90
53208;DHT22;39093;52.788;6.940;2022-12-18T15:40:21;-1.70;99.90
53208;DHT22;39093;52.788;6.940;2022-12-18T15:42:49;-1.70;99.90
53208;DHT22;39093;52.788;6.940;2022-12-18T15:45:36;-1.80;99.90
53208;DHT22;39093;52.788;6.940;2022-12-18T15:48:22;-1.70;99.90
53208;DHT22;39093;52.788;6.940;2022-12-18T15:51:37;-1.70;99.90
53208;DHT22;39093;52.788;6.940;2022-12-18T15:54:38;-1.70;99.90
53208;DHT22;39093;52.788;6.940;2022-12-18T15:57:36;-1.70;99.90
53208;DHT22;39093;52.788;6.940;2022-12-18T16:00:12;-1.70;99.90
53208;DHT22;39093;52.788;6.940;2022-12-18T16:02:43;-1.10;99.90
53208;DHT22;39093;52.788;6.940;2022-12-18T16:05:16;-1.70;99.90
53208;DHT22;39093;52.788;6.940;2022-12-18T16:07:44;-1.70;99.90
53208;DHT22;39093;52.788;6.940;2022-12-18T16:10:11;-1.30;99.90
53208;DHT22;39093;52.788;6.940;2022-12-18T16:12:38;-1.70;99.90
53208;DHT22;39093;52.788;6.940;2022-12-18T16:15:06;-1.70;99.90
53208;DHT22;39093;52.788;6.940;2022-12-18T16:21:09;-1.60;99.90
53208;DHT22;39093;52.788;6.940;2022-12-18T16:23:43;-1.60;99.90
53208;DHT22;39093;52.788;6.940;2022-12-18T16:26:10;-1.60;99.90
53208;DHT22;39093;52.788;6.940;2022-12-18T16:28:37;-1.50;99.90
53208;DHT22;39093;52.788;6.940;2022-12-18T16:31:10;-1.60;99.90
53208;DHT22;39093;52.788;6.940;2022-12-18T16:33:40;-1.60;99.90
53208;DHT22;39093;52.788;6.940;2022-12-18T16:36:08;-0.90;99.90
53208;DHT22;39093;52.788;6.940;2022-12-18T16:38:37;-1.00;99.90
53208;DHT22;39093;52.788;6.940;2022-12-18T16:41:18;-0.80;99.90
53208;DHT22;39093;52.788;6.940;2022-12-18T16:43:58;-1.40;99.90
53208;DHT22;39093;52.788;6.940;2022-12-18T16:46:29;-1.50;99.90
53208;DHT22;39093;52.788;6.940;2022-12-18T16:49:05;-1.60;99.90
53208;DHT22;39093;52.788;6.940;2022-12-18T16:51:46;-1.60;99.90
53208;DHT22;39093;52.788;6.940;2022-12-18T16:54:14;-1.60;99.90
53208;DHT22;39093;52.788;6.940;2022-12-18T16:56:45;-1.50;99.90
53208;DHT22;39093;52.788;6.940;2022-12-18T16:59:15;-1.10;99.90
53208;DHT22;39093;52.788;6.940;2022-12-18T17:01:43;-1.10;99.90
53208;DHT22;39093;52.788;6.940;2022-12-18T17:04:10;-1.50;99.90
53208;DHT22;39093;52.788;6.940;2022-12-18T17:06:42;-1.50;99.90
53208;DHT22;39093;52.788;6.940;2022-12-18T17:09:14;-1.50;99.90
53208;DHT22;39093;52.788;6.940;2022-12-18T17:11:44;-1.50;99.90
53208;DHT22;39093;52.788;6.940;2022-12-18T17:14:17;-1.50;99.90
53208;DHT22;39093;52.788;6.940;2022-12-18T17:16:44;-1.50;99.90
53208;DHT22;39093;52.788;6.940;2022-12-18T17:19:13;-1.50;99.90
53208;DHT22;39093;52.788;6.940;2022-12-18T17:21:49;-1.60;99.90
53208;DHT22;39093;52.788;6.940;2022-12-18T17:24:31;-1.40;99.90
53208;DHT22;39093;52.788;6.940;2022-12-18T17:27:02;-1.10;99.90
53208;DHT22;39093;52.788;6.940;2022-12-18T17:29:29;-1.40;99.90
53208;DHT22;39093;52.788;6.940;2022-12-18T17:31:56;-1.40;99.90
53208;DHT22;39093;52.788;6.940;2022-12-18T17:34:32;-1.30;99.90
53208;DHT22;39093;52.788;6.940;2022-12-18T17:37:02;-1.00;99.90
53208;DHT22;39093;52.788;6.940;2022-12-18T17:39:29;-1.40;99.90
53208;DHT22;39093;52.788;6.940;2022-12-18T17:41:57;-1.30;99.90
53208;DHT22;39093;52.788;6.940;2022-12-18T17:44:25;-1.30;99.90
53208;DHT22;39093;52.788;6.940;2022-12-18T17:46:52;-0.80;99.90